createdAt,value
2023-03-19T00:00:33.266Z,99.90
2023-03-19T00:03:02.928Z,99.90
2023-03-19T00:05:31.246Z,99.90
2023-03-19T00:07:59.339Z,99.90
2023-03-19T00:10:27.484Z,99.90
2023-03-19T00:12:55.585Z,99.90
2023-03-19T00:15:23.669Z,99.90
2023-03-19T00:17:51.695Z,99.90
2023-03-19T00:20:22.229Z,99.90
2023-03-19T00:22:50.601Z,99.90
2023-03-19T00:25:18.772Z,99.90
2023-03-19T00:27:46.834Z,99.90
2023-03-19T00:30:15.822Z,99.90
2023-03-19T00:32:44.085Z,99.90
2023-03-19T00:35:12.212Z,99.90
2023-03-19T00:37:42.191Z,99.90
2023-03-19T00:40:11.784Z,99.90
2023-03-19T00:42:39.857Z,99.90
2023-03-19T00:45:09.289Z,99.90
2023-03-19T00:47:37.329Z,99.90
2023-03-19T00:50:06.483Z,99.90
2023-03-19T00:52:34.472Z,99.90
2023-03-19T00:55:03.863Z,99.90
2023-03-19T00:57:31.957Z,99.90
2023-03-19T00:59:59.922Z,99.90
2023-03-19T01:02:28.125Z,99.90
2023-03-19T01:04:56.205Z,99.90
2023-03-19T01:07:24.351Z,99.90
2023-03-19T01:09:52.755Z,99.90
2023-03-19T01:12:22.362Z,99.90
2023-03-19T01:14:50.383Z,99.90
2023-03-19T01:17:18.454Z,99.90
2023-03-19T01:19:46.687Z,99.90
2023-03-19T01:22:17.648Z,99.90
2023-03-19T01:24:46.018Z,99.90
2023-03-19T01:27:14.259Z,99.90
2023-03-19T01:29:43.620Z,99.90
2023-03-19T01:32:12.026Z,99.90
2023-03-19T01:34:41.083Z,99.90
2023-03-19T01:37:09.308Z,99.90
2023-03-19T01:39:37.401Z,99.90
2023-03-19T01:42:05.834Z,99.90
2023-03-19T01:44:36.185Z,99.90
2023-03-19T01:47:08.981Z,99.90
2023-03-19T01:49:37.674Z,99.90
2023-03-19T01:52:08.290Z,99.90
2023-03-19T01:54:37.573Z,99.90
2023-03-19T01:57:09.493Z,99.90
2023-03-19T01:59:41.162Z,99.90
2023-03-19T02:02:16.377Z,99.90
2023-03-19T02:04:46.081Z,99.90
2023-03-19T02:07:15.797Z,99.90
2023-03-19T02:09:44.081Z,99.90
2023-03-19T02:12:13.789Z,99.90
2023-03-19T02:14:41.965Z,99.90
2023-03-19T02:17:12.352Z,99.90
2023-03-19T02:19:47.153Z,99.90
2023-03-19T02:22:17.817Z,99.90
2023-03-19T02:24:52.849Z,99.90
2023-03-19T02:27:22.488Z,99.90
2023-03-19T02:29:50.640Z,99.90
2023-03-19T02:32:18.747Z,99.90
2023-03-19T02:34:47.151Z,99.90
2023-03-19T02:37:18.984Z,99.90
2023-03-19T02:39:53.043Z,99.90
2023-03-19T02:42:23.819Z,99.90
2023-03-19T02:44:51.844Z,99.90
2023-03-19T02:47:19.917Z,99.90
2023-03-19T02:49:47.934Z,99.90
2023-03-19T02:52:17.186Z,99.90
2023-03-19T02:54:45.408Z,99.90
2023-03-19T02:57:13.821Z,99.90
2023-03-19T02:59:43.338Z,99.90
2023-03-19T03:02:11.929Z,99.90
2023-03-19T03:04:40.069Z,99.90
2023-03-19T03:07:08.587Z,99.90
2023-03-19T03:09:36.764Z,99.90
2023-03-19T03:12:06.155Z,99.90
2023-03-19T03:14:35.069Z,99.90
2023-03-19T03:17:04.982Z,99.90
2023-03-19T03:19:33.289Z,99.90
2023-03-19T03:22:01.773Z,99.90
2023-03-19T03:24:29.959Z,99.90
2023-03-19T03:26:58.066Z,99.90
2023-03-19T03:29:26.124Z,99.90
2023-03-19T03:31:54.286Z,99.90
2023-03-19T03:34:23.870Z,99.90
2023-03-19T03:36:52.139Z,99.90
2023-03-19T03:39:20.230Z,99.90
2023-03-19T03:41:48.271Z,99.90
2023-03-19T03:44:16.292Z,99.90
2023-03-19T03:46:44.532Z,99.90
2023-03-19T03:49:12.548Z,99.90
2023-03-19T03:51:42.427Z,99.90
2023-03-19T03:54:12.146Z,99.90
2023-03-19T03:56:40.164Z,99.90
2023-03-19T03:59:08.265Z,99.90
2023-03-19T04:01:37.032Z,99.90
2023-03-19T04:04:05.128Z,99.90
2023-03-19T04:06:33.233Z,99.90
2023-03-19T04:09:02.809Z,99.90
2023-03-19T04:11:30.816Z,99.90
2023-03-19T04:13:59.082Z,99.90
2023-03-19T04:16:28.677Z,99.90
2023-03-19T04:18:56.743Z,99.90
2023-03-19T04:21:24.753Z,99.90
2023-03-19T04:23:53.321Z,99.90
2023-03-19T04:26:23.105Z,99.90
2023-03-19T04:28:51.201Z,99.90
2023-03-19T04:31:19.333Z,99.90
2023-03-19T04:33:47.729Z,99.90
2023-03-19T04:36:17.623Z,99.90
2023-03-19T04:38:45.601Z,99.90
2023-03-19T04:41:15.885Z,99.90
2023-03-19T04:43:45.485Z,99.90
2023-03-19T04:46:13.580Z,99.90
2023-03-19T04:48:41.593Z,99.90
2023-03-19T04:51:09.678Z,99.90
2023-03-19T04:53:38.909Z,99.90
2023-03-19T04:56:08.730Z,99.90
2023-03-19T04:58:36.745Z,99.90
2023-03-19T05:01:06.369Z,99.90
2023-03-19T05:03:34.523Z,99.90
2023-03-19T05:06:02.653Z,99.90
2023-03-19T05:08:30.754Z,99.90
2023-03-19T05:10:58.836Z,99.90
2023-03-19T05:13:26.819Z,99.90
2023-03-19T05:15:56.679Z,99.90
2023-03-19T05:18:26.161Z,99.90
2023-03-19T05:20:54.716Z,99.90
2023-03-19T05:23:23.182Z,99.90
2023-03-19T05:25:51.260Z,99.90
2023-03-19T05:28:19.306Z,99.90
2023-03-19T05:30:47.384Z,99.90
2023-03-19T05:33:15.609Z,99.90
2023-03-19T05:35:45.785Z,99.90
2023-03-19T05:38:13.874Z,99.90
2023-03-19T05:40:42.923Z,99.90
2023-03-19T05:43:11.703Z,99.90
2023-03-19T05:45:40.330Z,99.90
2023-03-19T05:48:09.048Z,99.90
2023-03-19T05:50:37.353Z,99.90
2023-03-19T05:53:06.814Z,99.90
2023-03-19T05:55:34.893Z,99.90
2023-03-19T05:58:02.956Z,99.90
2023-03-19T06:00:31.643Z,99.90
2023-03-19T06:02:59.738Z,99.90
2023-03-19T06:05:27.870Z,99.90
2023-03-19T06:07:56.391Z,99.90
2023-03-19T06:10:25.830Z,99.90
2023-03-19T06:12:53.911Z,99.90
2023-03-19T06:15:21.983Z,99.90
2023-03-19T06:17:50.067Z,99.90
2023-03-19T06:20:18.931Z,99.90
2023-03-19T06:22:46.967Z,99.90
2023-03-19T06:25:15.096Z,99.90
2023-03-19T06:27:44.790Z,99.90
2023-03-19T06:30:13.844Z,99.90
2023-03-19T06:32:42.286Z,99.90
2023-03-19T06:35:11.433Z,99.90
2023-03-19T06:37:39.462Z,99.90
2023-03-19T06:40:08.159Z,99.90
2023-03-19T06:42:36.507Z,99.90
2023-03-19T06:45:07.617Z,99.90
2023-03-19T06:47:35.725Z,99.90
2023-03-19T06:50:04.483Z,99.90
2023-03-19T06:52:32.507Z,99.90
2023-03-19T06:55:00.783Z,99.90
2023-03-19T06:57:28.851Z,99.90
2023-03-19T06:59:56.872Z,99.90
2023-03-19T07:02:26.355Z,99.90
2023-03-19T07:04:54.524Z,99.90
2023-03-19T07:07:21.920Z,99.90
2023-03-19T07:09:50.062Z,99.90
2023-03-19T07:12:18.078Z,99.90
2023-03-19T07:14:46.297Z,99.90
2023-03-19T07:17:14.326Z,99.90
2023-03-19T07:19:43.706Z,99.90
2023-03-19T07:22:12.162Z,99.90
2023-03-19T07:24:40.870Z,99.90
2023-03-19T07:27:09.254Z,99.90
2023-03-19T07:29:38.198Z,99.90
2023-03-19T07:32:06.897Z,99.90
2023-03-19T07:34:34.962Z,99.90
2023-03-19T07:37:04.641Z,99.90
2023-03-19T07:39:32.664Z,99.90
2023-03-19T07:42:00.827Z,99.90
2023-03-19T07:44:28.831Z,99.90
2023-03-19T07:46:56.958Z,99.90
2023-03-19T07:49:25.331Z,99.90
2023-03-19T07:51:53.413Z,99.90
2023-03-19T07:54:23.649Z,99.90
2023-03-19T07:56:51.693Z,99.90
2023-03-19T07:59:19.734Z,99.90
2023-03-19T08:01:47.900Z,99.90
2023-03-19T08:04:16.534Z,99.90
2023-03-19T08:06:44.643Z,99.90
2023-03-19T08:09:13.356Z,99.90
2023-03-19T08:11:43.046Z,99.90
2023-03-19T08:14:11.183Z,99.90
2023-03-19T08:16:39.584Z,99.90
2023-03-19T08:19:08.297Z,99.90
2023-03-19T08:21:36.353Z,99.90
2023-03-19T08:24:05.080Z,99.90
2023-03-19T08:26:33.486Z,99.90
2023-03-19T08:29:04.238Z,99.90
2023-03-19T08:31:32.479Z,99.90
2023-03-19T08:34:03.221Z,99.90
2023-03-19T08:36:31.730Z,99.90
2023-03-19T08:39:00.477Z,99.90
2023-03-19T08:41:28.786Z,99.90
2023-03-19T08:43:57.023Z,99.90
2023-03-19T08:46:26.955Z,99.90
2023-03-19T08:48:55.349Z,99.90
2023-03-19T08:51:24.821Z,99.90
2023-03-19T08:53:52.999Z,99.10
2023-03-19T08:56:21.143Z,98.90
2023-03-19T08:58:49.244Z,99.90
2023-03-19T09:01:17.740Z,98.40
2023-03-19T09:03:47.128Z,98.90
2023-03-19T09:06:16.111Z,97.20
2023-03-19T09:08:44.760Z,95.70
2023-03-19T09:11:14.500Z,95.50
2023-03-19T09:13:42.648Z,94.00
2023-03-19T09:16:10.935Z,92.10
2023-03-19T09:18:39.080Z,90.70
2023-03-19T09:21:08.707Z,90.20
2023-03-19T09:23:36.905Z,89.20
2023-03-19T09:26:05.133Z,88.30
2023-03-19T09:28:33.455Z,89.40
2023-03-19T09:31:07.029Z,84.20
2023-03-19T09:33:35.358Z,87.40
2023-03-19T09:36:03.478Z,86.50
2023-03-19T09:38:33.551Z,90.30
2023-03-19T09:41:09.982Z,85.30
2023-03-19T09:44:00.360Z,82.40
2023-03-19T09:46:35.381Z,82.70
2023-03-19T09:49:09.225Z,81.10
2023-03-19T09:51:44.516Z,80.50
2023-03-19T09:54:26.490Z,78.70
2023-03-19T09:56:54.650Z,77.00
2023-03-19T09:59:25.041Z,76.40
2023-03-19T10:02:00.046Z,73.60
2023-03-19T10:04:43.613Z,74.00
2023-03-19T10:07:25.455Z,75.20
2023-03-19T10:10:17.490Z,72.10
2023-03-19T10:12:54.832Z,75.00
2023-03-19T10:15:28.940Z,77.10
2023-03-19T10:18:04.459Z,73.70
2023-03-19T10:20:43.414Z,74.00
2023-03-19T10:23:34.846Z,74.50
2023-03-19T10:26:07.394Z,74.60
2023-03-19T10:28:35.457Z,75.40
2023-03-19T10:31:19.084Z,75.30
2023-03-19T10:33:53.909Z,73.90
2023-03-19T10:36:27.578Z,74.10
2023-03-19T10:38:56.119Z,76.90
2023-03-19T10:41:35.353Z,78.60
2023-03-19T10:44:07.031Z,80.70
2023-03-19T10:46:39.698Z,81.60
2023-03-19T10:49:13.168Z,84.30
2023-03-19T10:51:44.156Z,83.60
2023-03-19T10:54:23.536Z,84.80
2023-03-19T10:56:56.016Z,86.80
2023-03-19T10:59:27.273Z,86.00
2023-03-19T11:01:59.626Z,86.30
2023-03-19T11:04:29.695Z,85.60
2023-03-19T11:07:03.767Z,87.70
2023-03-19T11:09:35.838Z,86.80
2023-03-19T11:12:18.197Z,86.80
2023-03-19T11:14:49.124Z,89.50
2023-03-19T11:17:26.496Z,88.40
2023-03-19T11:19:56.815Z,88.60
2023-03-19T11:22:27.098Z,90.30
2023-03-19T11:24:57.073Z,90.10
2023-03-19T11:27:31.668Z,90.80
2023-03-19T11:30:00.174Z,91.60
2023-03-19T11:33:04.653Z,91.40
2023-03-19T11:35:37.908Z,92.20
2023-03-19T11:38:13.175Z,91.50
2023-03-19T11:40:46.624Z,90.20
2023-03-19T11:43:32.459Z,90.20
2023-03-19T11:46:12.926Z,89.40
2023-03-19T11:49:05.006Z,88.60
2023-03-19T11:51:40.103Z,88.60
2023-03-19T11:54:17.948Z,88.50
2023-03-19T11:56:51.366Z,88.90
2023-03-19T11:59:54.902Z,90.30
2023-03-19T12:02:48.660Z,90.90
2023-03-19T12:05:26.684Z,90.60
2023-03-19T12:08:07.405Z,90.30
2023-03-19T12:10:52.960Z,89.60
2023-03-19T12:13:36.672Z,90.80
2023-03-19T12:16:17.057Z,91.00
2023-03-19T12:19:04.510Z,91.10
2023-03-19T12:21:44.803Z,92.20
2023-03-19T12:24:23.203Z,92.20
2023-03-19T12:27:01.750Z,92.70
2023-03-19T12:29:41.238Z,92.20
2023-03-19T12:32:21.551Z,92.50
2023-03-19T12:34:53.823Z,93.10
2023-03-19T12:37:29.252Z,92.90
2023-03-19T12:40:16.756Z,92.60
2023-03-19T12:42:45.020Z,92.00
2023-03-19T12:45:24.420Z,92.20
2023-03-19T12:47:59.677Z,92.70
2023-03-19T12:50:31.318Z,91.60
2023-03-19T12:53:03.310Z,91.60
2023-03-19T12:55:38.545Z,92.40
2023-03-19T12:58:15.505Z,92.60
2023-03-19T13:00:50.825Z,92.00
2023-03-19T13:03:29.095Z,91.70
2023-03-19T13:06:03.312Z,91.40
2023-03-19T13:08:36.494Z,91.60
2023-03-19T13:11:11.592Z,91.40
2023-03-19T13:13:46.627Z,91.40
2023-03-19T13:16:31.842Z,90.30
2023-03-19T13:19:11.496Z,90.80
2023-03-19T13:21:42.578Z,91.30
2023-03-19T13:24:21.125Z,91.80
2023-03-19T13:26:51.026Z,91.90
2023-03-19T13:29:22.083Z,92.00
2023-03-19T13:31:50.746Z,92.10
2023-03-19T13:34:27.839Z,92.30
2023-03-19T13:37:02.422Z,92.80
2023-03-19T13:39:33.578Z,92.70
2023-03-19T13:42:25.066Z,92.80
2023-03-19T13:44:55.239Z,92.70
2023-03-19T13:47:42.461Z,93.20
2023-03-19T13:50:52.109Z,93.50
2023-03-19T13:53:42.343Z,94.20
2023-03-19T13:56:28.509Z,94.30
2023-03-19T13:59:25.137Z,94.40
2023-03-19T14:01:53.367Z,94.50
2023-03-19T14:04:24.833Z,94.00
2023-03-19T14:06:57.808Z,94.00
2023-03-19T14:09:44.158Z,94.00
2023-03-19T14:12:23.319Z,94.20
2023-03-19T14:14:54.820Z,94.30
2023-03-19T14:17:26.257Z,94.90
2023-03-19T14:19:55.502Z,95.30
2023-03-19T14:22:37.066Z,96.20
2023-03-19T14:25:17.704Z,94.80
2023-03-19T14:27:49.049Z,93.80
2023-03-19T14:30:32.806Z,93.60
2023-03-19T14:33:05.978Z,94.10
2023-03-19T14:35:37.805Z,93.50
2023-03-19T14:38:16.071Z,92.60
2023-03-19T14:40:48.007Z,92.20
2023-03-19T14:43:28.444Z,93.10
2023-03-19T14:46:01.449Z,93.70
2023-03-19T14:49:05.454Z,94.40
2023-03-19T14:52:06.218Z,94.80
2023-03-19T14:54:41.816Z,94.90
2023-03-19T14:57:17.071Z,94.70
2023-03-19T14:59:45.387Z,94.20
2023-03-19T15:02:26.455Z,94.30
2023-03-19T15:04:56.010Z,94.70
2023-03-19T15:07:30.545Z,95.20
2023-03-19T15:10:06.562Z,95.10
2023-03-19T15:12:53.883Z,95.30
2023-03-19T15:15:33.663Z,96.00
2023-03-19T15:18:04.613Z,96.20
2023-03-19T15:20:37.692Z,96.50
2023-03-19T15:23:20.010Z,97.20
2023-03-19T15:25:58.006Z,97.20
2023-03-19T15:28:30.130Z,98.10
2023-03-19T15:31:12.237Z,97.90
2023-03-19T15:33:47.226Z,98.20
2023-03-19T15:36:19.945Z,98.40
2023-03-19T15:38:53.342Z,98.80
2023-03-19T15:41:25.521Z,98.60
2023-03-19T15:43:54.241Z,99.20
2023-03-19T15:46:25.666Z,99.90
2023-03-19T15:48:59.130Z,99.90
2023-03-19T15:51:27.992Z,99.90
2023-03-19T15:53:56.734Z,99.90
2023-03-19T15:56:26.853Z,99.90
2023-03-19T15:58:58.333Z,99.90
2023-03-19T16:01:28.135Z,99.90
2023-03-19T16:04:00.741Z,99.90
2023-03-19T16:06:31.710Z,99.90
2023-03-19T16:09:16.824Z,99.90
2023-03-19T16:11:47.371Z,99.90
2023-03-19T16:14:25.095Z,99.90
2023-03-19T16:17:00.102Z,99.90
2023-03-19T16:19:32.536Z,99.90
2023-03-19T16:22:01.677Z,99.90
2023-03-19T16:24:34.139Z,99.90
2023-03-19T16:27:07.491Z,99.90
2023-03-19T16:29:39.754Z,99.90
2023-03-19T16:32:22.886Z,99.90
2023-03-19T16:34:53.684Z,99.90
2023-03-19T16:37:29.337Z,99.90
2023-03-19T16:39:58.690Z,99.90
2023-03-19T16:42:39.949Z,99.90
2023-03-19T16:45:26.279Z,99.90
2023-03-19T16:47:55.814Z,99.90
2023-03-19T16:50:30.033Z,99.90
2023-03-19T16:52:59.933Z,99.90
2023-03-19T16:55:32.468Z,99.90
2023-03-19T16:58:04.264Z,99.90
2023-03-19T17:00:33.785Z,99.90
2023-03-19T17:03:02.038Z,99.90
2023-03-19T17:05:31.025Z,99.90
2023-03-19T17:07:59.209Z,99.90
2023-03-19T17:10:30.313Z,99.90
2023-03-19T17:12:59.453Z,99.90
2023-03-19T17:15:33.123Z,99.90
2023-03-19T17:18:03.575Z,99.90
2023-03-19T17:20:34.490Z,99.90
2023-03-19T17:23:02.927Z,99.90
2023-03-19T17:25:31.298Z,99.90
2023-03-19T17:27:59.578Z,99.90
2023-03-19T17:30:29.134Z,99.90
2023-03-19T17:32:57.748Z,99.90
2023-03-19T17:35:26.404Z,99.90
2023-03-19T17:37:54.660Z,99.90
2023-03-19T17:40:26.854Z,99.90
2023-03-19T17:42:56.132Z,99.90
2023-03-19T17:45:27.846Z,99.90
2023-03-19T17:47:59.201Z,99.90
2023-03-19T17:50:29.587Z,99.90
2023-03-19T17:52:57.986Z,99.90
2023-03-19T17:55:28.523Z,99.90
2023-03-19T17:57:57.170Z,99.90
2023-03-19T18:00:26.564Z,99.90
2023-03-19T18:02:57.961Z,99.90
2023-03-19T18:05:27.513Z,99.90
2023-03-19T18:07:58.080Z,99.90
2023-03-19T18:10:30.378Z,99.90
2023-03-19T18:13:00.292Z,99.90
2023-03-19T18:15:29.756Z,99.90
2023-03-19T18:18:02.103Z,99.90
2023-03-19T18:20:35.695Z,99.90
2023-03-19T18:23:04.389Z,99.90
2023-03-19T18:25:35.885Z,99.90
2023-03-19T18:28:04.656Z,99.90
2023-03-19T18:30:35.441Z,99.90
2023-03-19T18:33:07.461Z,99.90
2023-03-19T18:35:39.413Z,99.90
2023-03-19T18:38:15.326Z,99.90
2023-03-19T18:40:43.700Z,99.90
2023-03-19T18:43:14.200Z,99.90
2023-03-19T18:45:45.423Z,99.90
2023-03-19T18:48:22.262Z,99.90
2023-03-19T18:50:50.860Z,99.90
2023-03-19T18:53:19.620Z,99.90
2023-03-19T18:55:47.960Z,99.90
2023-03-19T18:58:20.368Z,99.90
2023-03-19T19:00:49.471Z,99.90
2023-03-19T19:03:22.526Z,99.90
2023-03-19T19:05:53.715Z,99.90
2023-03-19T19:08:23.027Z,99.90
2023-03-19T19:10:56.577Z,99.90
2023-03-19T19:13:28.454Z,99.90
2023-03-19T19:15:56.785Z,99.90
2023-03-19T19:18:28.476Z,99.90
2023-03-19T19:20:58.515Z,99.90
2023-03-19T19:23:27.288Z,99.90
2023-03-19T19:25:56.408Z,99.90
2023-03-19T19:28:28.018Z,99.90
2023-03-19T19:30:57.682Z,99.90
2023-03-19T19:33:29.147Z,99.90
2023-03-19T19:35:57.618Z,99.90
2023-03-19T19:38:26.058Z,99.90
2023-03-19T19:40:58.304Z,99.90
2023-03-19T19:43:30.753Z,99.90
2023-03-19T19:46:00.203Z,99.90
2023-03-19T19:48:31.498Z,99.90
2023-03-19T19:51:00.047Z,99.90
2023-03-19T19:53:29.536Z,99.90
2023-03-19T19:55:58.053Z,99.90
2023-03-19T19:58:29.258Z,99.90
2023-03-19T20:01:03.744Z,99.90
2023-03-19T20:03:35.046Z,99.90
2023-03-19T20:06:03.884Z,99.90
2023-03-19T20:08:32.970Z,99.90
2023-03-19T20:11:02.623Z,99.90
2023-03-19T20:13:34.145Z,99.90
2023-03-19T20:16:03.805Z,99.90
2023-03-19T20:18:36.056Z,99.90
2023-03-19T20:21:07.467Z,99.90
2023-03-19T20:23:36.101Z,99.90
2023-03-19T20:26:04.380Z,99.90
2023-03-19T20:28:35.888Z,99.90
2023-03-19T20:31:05.362Z,99.90
2023-03-19T20:33:37.507Z,99.90
2023-03-19T20:36:06.580Z,99.90
2023-03-19T20:38:36.763Z,99.90
2023-03-19T20:41:05.182Z,99.90
2023-03-19T20:43:35.426Z,99.90
2023-03-19T20:46:05.795Z,99.90
2023-03-19T20:48:35.836Z,99.90
2023-03-19T20:51:04.596Z,99.90
2023-03-19T20:53:32.823Z,99.90
2023-03-19T20:56:03.463Z,99.90
2023-03-19T20:58:34.801Z,99.90
2023-03-19T21:01:02.947Z,99.90
2023-03-19T21:03:32.909Z,99.90
2023-03-19T21:06:06.147Z,99.90
2023-03-19T21:08:37.328Z,99.90
2023-03-19T21:11:05.820Z,99.90
2023-03-19T21:13:34.814Z,99.90
2023-03-19T21:16:03.139Z,99.90
2023-03-19T21:18:31.454Z,99.90
2023-03-19T21:20:59.976Z,99.90
2023-03-19T21:23:34.434Z,99.90
2023-03-19T21:26:08.578Z,99.90
2023-03-19T21:28:39.358Z,99.90
2023-03-19T21:31:08.100Z,99.90
2023-03-19T21:33:37.110Z,99.90
2023-03-19T21:36:06.511Z,99.90
2023-03-19T21:38:36.196Z,99.90
2023-03-19T21:41:06.757Z,99.90
2023-03-19T21:43:37.690Z,99.90
2023-03-19T21:46:21.390Z,99.90
2023-03-19T21:48:52.043Z,99.90
2023-03-19T21:51:20.522Z,99.90
2023-03-19T21:53:50.199Z,99.90
2023-03-19T21:56:23.218Z,99.90
2023-03-19T21:58:52.571Z,99.90
2023-03-19T22:01:23.715Z,99.90
2023-03-19T22:03:52.591Z,99.90
2023-03-19T22:06:22.190Z,99.90
2023-03-19T22:08:54.073Z,99.90
2023-03-19T22:11:26.790Z,99.90
2023-03-19T22:13:55.858Z,99.90
2023-03-19T22:16:26.209Z,99.90
2023-03-19T22:18:54.713Z,99.90
2023-03-19T22:21:23.945Z,99.90
2023-03-19T22:23:53.560Z,99.90
2023-03-19T22:26:31.007Z,99.90
2023-03-19T22:29:01.770Z,99.90
2023-03-19T22:31:30.958Z,99.90
2023-03-19T22:33:59.303Z,99.90
2023-03-19T22:36:27.475Z,99.90
2023-03-19T22:38:57.773Z,99.90
2023-03-19T22:41:30.197Z,99.90
2023-03-19T22:43:59.878Z,99.90
2023-03-19T22:46:28.372Z,99.90
2023-03-19T22:48:56.790Z,99.90
2023-03-19T22:51:27.324Z,99.90
2023-03-19T22:53:56.999Z,99.90
2023-03-19T22:56:24.993Z,99.90
2023-03-19T22:58:53.085Z,99.90
2023-03-19T23:01:32.739Z,99.90
2023-03-19T23:04:22.131Z,99.90
2023-03-19T23:06:51.421Z,99.90
2023-03-19T23:09:22.764Z,99.90
2023-03-19T23:11:51.131Z,99.90
2023-03-19T23:14:29.063Z,99.90
2023-03-19T23:16:59.981Z,99.90
2023-03-19T23:19:29.976Z,99.90
2023-03-19T23:21:59.748Z,99.90
2023-03-19T23:24:30.624Z,99.90
2023-03-19T23:27:00.326Z,99.90
2023-03-19T23:29:31.640Z,99.90
2023-03-19T23:31:59.998Z,99.90
2023-03-19T23:34:29.254Z,99.90
2023-03-19T23:36:58.013Z,99.90
2023-03-19T23:39:26.735Z,99.90
2023-03-19T23:41:59.186Z,99.90
2023-03-19T23:44:29.131Z,99.90
2023-03-19T23:47:01.571Z,99.90
2023-03-19T23:49:32.341Z,99.90
2023-03-19T23:52:00.728Z,99.90
2023-03-19T23:54:30.768Z,99.90
2023-03-19T23:57:03.803Z,99.90
2023-03-19T23:59:36.049Z,99.90
